Time;durP1;ratioP1;P1;durP2;ratioP2;P2;SDS_P1;SDS_P2;PMS_P1;PMS_P2;Temp;Humidity;BMP_temperature;BMP_pressure;BME280_temperature;BME280_humidity;BME280_pressure;Samples;Min_cycle;Max_cycle;Signal;HPM_P1;HPM_P2
2024/03/27 00:01:15;;;;;;;14.83;9.80;;;;;;;7.86;100.00;99092.28;5059846;28;20203;-72
2024/03/27 00:03:41;;;;;;;15.90;8.90;;;;;;;6.64;100.00;98931.34;5061346;28;20633;-74
2024/03/27 00:06:06;;;;;;;13.00;8.40;;;;;;;7.70;100.00;99087.56;5042383;28;20708;-72
2024/03/27 00:08:32;;;;;;;12.17;8.93;;;;;;;7.64;100.00;99075.94;5058846;28;20575;-72
2024/03/27 00:10:58;;;;;;;13.57;8.93;;;;;;;7.23;100.00;99020.56;5060722;28;20651;-72
2024/03/27 00:13:24;;;;;;;13.83;9.17;;;;;;;7.40;100.00;99074.94;5061767;28;20214;-72
2024/03/27 00:15:54;;;;;;;15.10;9.00;;;;;;;7.36;100.00;99095.09;5060928;28;20560;-71
2024/03/27 00:18:20;;;;;;;12.97;8.60;;;;;;;7.16;100.00;99059.81;5059406;28;20472;-72
2024/03/27 00:20:45;;;;;;;13.37;8.93;;;;;;;7.65;100.00;99116.78;5060000;28;20945;-73
2024/03/27 00:23:13;;;;;;;14.10;9.60;;;;;;;7.57;100.00;99109.88;5063489;28;20461;-72
2024/03/27 00:25:38;;;;;;;14.40;9.30;;;;;;;7.56;100.00;99075.41;5061856;28;20233;-72
2024/03/27 00:28:04;;;;;;;13.50;9.00;;;;;;;7.44;100.00;99051.34;5061859;28;20795;-73
2024/03/27 00:30:29;;;;;;;14.20;8.67;;;;;;;7.67;100.00;99098.69;5043705;28;20225;-73
2024/03/27 00:32:57;;;;;;;13.53;8.87;;;;;;;7.72;100.00;99090.00;5060078;28;20631;-72
2024/03/27 00:35:23;;;;;;;;;;;;;;;7.60;100.00;99081.94;5055868;28;20191;-73
2024/03/27 00:37:48;;;;;;;;;;;;;;;7.75;100.00;99086.88;5063340;28;19912;-72
2024/03/27 00:40:13;;;;;;;12.63;8.27;;;;;;;7.30;100.00;99017.84;5061822;28;20329;-72
2024/03/27 00:42:39;;;;;;;13.23;8.90;;;;;;;6.87;100.00;98958.19;5063272;28;20203;-72
2024/03/27 00:45:05;;;;;;;11.23;8.17;;;;;;;7.48;100.00;99072.00;5063828;28;20187;-72
2024/03/27 00:47:30;;;;;;;12.77;8.47;;;;;;;7.05;100.00;98992.03;5058796;28;20191;-72
2024/03/27 00:49:56;;;;;;;14.60;9.10;;;;;;;7.07;100.00;99037.94;5057835;28;20214;-73
2024/03/27 00:52:22;;;;;;;11.30;8.03;;;;;;;6.75;100.00;98960.75;5062628;28;20890;-73
2024/03/27 00:54:47;;;;;;;14.23;9.47;;;;;;;7.07;100.00;99007.81;5063676;28;20634;-72
2024/03/27 00:57:13;;;;;;;13.80;8.90;;;;;;;7.37;100.00;99042.56;5059880;28;20187;-72
2024/03/27 00:59:38;;;;;;;14.53;9.67;;;;;;;7.44;100.00;99070.00;5061381;28;20197;-72
2024/03/27 01:02:04;;;;;;;12.47;8.40;;;;;;;7.45;100.00;99074.28;5060714;28;20245;-71
2024/03/27 01:04:31;;;;;;;11.47;8.30;;;;;;;6.90;100.00;98992.38;5041936;28;20211;-72
2024/03/27 01:06:56;;;;;;;11.60;8.43;;;;;;;7.05;100.00;99020.53;5062355;28;20499;-72
2024/03/27 01:09:21;;;;;;;12.80;8.40;;;;;;;7.43;100.00;99077.19;5062324;28;20183;-72
2024/03/27 01:11:47;;;;;;;13.30;8.17;;;;;;;7.47;100.00;99072.22;5041243;28;20215;-72
2024/03/27 01:14:12;;;;;;;15.23;10.17;;;;;;;7.39;100.00;99030.66;5060831;28;20232;-71
2024/03/27 01:16:38;;;;;;;13.07;9.07;;;;;;;7.00;100.00;98967.88;5059014;28;20272;-72
2024/03/27 01:19:03;;;;;;;12.43;8.30;;;;;;;7.09;100.00;98977.25;5042871;28;20708;-72
2024/03/27 01:21:28;;;;;;;12.50;8.70;;;;;;;7.21;100.00;98995.97;5059624;28;20199;-72
2024/03/27 01:23:54;;;;;;;16.53;9.67;;;;;;;6.55;100.00;98899.66;5062540;28;20182;-72
2024/03/27 01:26:19;;;;;;;13.53;9.20;;;;;;;7.22;100.00;99010.94;5060745;28;20182;-72
2024/03/27 01:28:47;;;;;;;13.40;9.10;;;;;;;7.07;100.00;98981.97;5064643;28;20629;-73
2024/03/27 01:31:13;;;;;;;15.10;9.80;;;;;;;6.45;100.00;98907.38;5042247;28;20215;-72
2024/03/27 01:33:38;;;;;;;12.33;8.97;;;;;;;6.85;100.00;98999.41;5060382;28;20929;-72
2024/03/27 01:36:04;;;;;;;12.13;8.60;;;;;;;6.21;100.00;98906.31;5059981;28;20195;-72
2024/03/27 01:38:29;;;;;;;12.80;8.30;;;;;;;6.51;100.00;98950.97;5063941;28;20270;-72
2024/03/27 01:40:54;;;;;;;13.10;8.20;;;;;;;7.24;100.00;99049.69;5061007;28;20188;-72
2024/03/27 01:43:20;;;;;;;12.73;8.70;;;;;;;7.12;100.00;99034.63;5062286;28;20195;-73
2024/03/27 01:45:45;;;;;;;12.33;8.93;;;;;;;6.29;100.00;98894.59;5043364;28;20213;-72
2024/03/27 01:48:11;;;;;;;16.43;9.13;;;;;;;6.37;100.00;98920.16;5064946;28;20655;-72
2024/03/27 01:50:36;;;;;;;12.87;8.13;;;;;;;6.59;100.00;98965.81;5064502;28;20202;-72
2024/03/27 01:53:03;;;;;;;12.33;8.37;;;;;;;7.06;100.00;99019.50;5062222;28;20201;-72
2024/03/27 01:55:29;;;;;;;13.67;8.70;;;;;;;6.57;100.00;98966.88;5062420;28;20226;-72
2024/03/27 01:57:56;;;;;;;12.30;8.53;;;;;;;7.17;100.00;99062.25;5064902;28;20472;-72
2024/03/27 02:00:23;;;;;;;12.10;9.00;;;;;;;6.36;100.00;98937.13;5062012;28;20477;-72
2024/03/27 02:02:49;;;;;;;12.30;8.50;;;;;;;7.09;100.00;99062.56;5061109;28;20480;-72
2024/03/27 02:05:15;;;;;;;12.23;8.43;;;;;;;6.51;100.00;98980.25;5064187;28;20603;-72
2024/03/27 02:07:43;;;;;;;12.50;8.33;;;;;;;6.35;100.00;98954.97;5061812;28;20183;-72
2024/03/27 02:10:09;;;;;;;13.30;9.17;;;;;;;7.13;100.00;99073.59;5066334;28;20231;-72
2024/03/27 02:12:35;;;;;;;12.80;8.57;;;;;;;7.08;100.00;99070.75;5065255;28;20599;-73
2024/03/27 02:15:04;;;;;;;11.53;8.67;;;;;;;6.62;100.00;99018.66;5064472;28;20210;-73
2024/03/27 02:17:29;;;;;;;13.07;8.30;;;;;;;5.65;100.00;98851.25;5062701;28;20430;-73
2024/03/27 02:19:55;;;;;;;12.70;8.70;;;;;;;6.50;100.00;99002.56;5065050;28;20440;-73
2024/03/27 02:22:20;;;;;;;12.80;8.70;;;;;;;6.96;100.00;99076.78;5064875;28;20229;-72
2024/03/27 02:24:54;;;;;;;10.87;7.17;;;;;;;7.04;100.00;99083.72;5062587;28;20794;-72
2024/03/27 02:27:20;;;;;;;11.90;8.30;;;;;;;6.96;100.00;99060.00;5064312;28;20186;-71
2024/03/27 02:29:45;;;;;;;12.20;7.77;;;;;;;6.85;100.00;99053.53;5061678;28;20799;-72
2024/03/27 02:32:10;;;;;;;10.60;7.40;;;;;;;6.81;100.00;99031.00;5064580;28;20241;-72
2024/03/27 02:37:05;;;;;;;14.83;8.43;;;;;;;6.79;100.00;98990.44;5020553;28;20278;-67
2024/03/27 02:39:30;;;;;;;13.20;8.10;;;;;;;6.48;100.00;98943.38;5024940;28;20442;-67
2024/03/27 02:41:56;;;;;;;11.63;8.03;;;;;;;7.05;100.00;99036.53;5025811;28;21506;-67
2024/03/27 02:44:21;;;;;;;16.13;8.30;;;;;;;7.24;100.00;99047.00;5027221;28;20271;-68
2024/03/27 02:46:46;;;;;;;14.50;7.90;;;;;;;7.21;100.00;99036.78;5027136;28;20180;-68
2024/03/27 02:49:12;;;;;;;12.47;8.57;;;;;;;6.76;100.00;98966.91;5019897;28;20812;-68
2024/03/27 02:51:37;;;;;;;16.60;8.30;;;;;;;5.97;100.00;98851.25;5024274;28;20227;-68
2024/03/27 02:54:03;;;;;;;12.60;8.63;;;;;;;6.56;100.00;98911.13;5022120;28;20245;-68
2024/03/27 02:56:28;;;;;;;13.67;8.87;;;;;;;7.20;100.00;99016.50;5022885;28;20266;-68
2024/03/27 02:58:53;;;;;;;12.37;7.90;;;;;;;7.27;100.00;99010.28;5024883;28;20192;-68
2024/03/27 03:01:19;;;;;;;11.57;8.20;;;;;;;7.40;100.00;99004.78;5004717;28;20708;-68
2024/03/27 03:03:44;;;;;;;11.67;8.17;;;;;;;6.99;100.00;98943.06;5024774;28;20655;-68
2024/03/27 03:06:10;;;;;;;14.20;8.40;;;;;;;6.68;100.00;98898.75;5025061;28;20190;-68
2024/03/27 03:08:35;;;;;;;13.83;8.90;;;;;;;6.94;100.00;98920.78;5026663;28;20188;-68
2024/03/27 03:11:00;;;;;;;13.50;8.60;;;;;;;7.07;100.00;98925.97;5023974;28;20212;-68
2024/03/27 03:13:26;;;;;;;13.83;7.87;;;;;;;6.86;100.00;98897.13;5020643;28;20228;-68
2024/03/27 03:15:52;;;;;;;12.60;8.97;;;;;;;7.27;100.00;98967.63;5019818;28;20275;-68
2024/03/27 03:18:17;;;;;;;16.13;8.83;;;;;;;7.52;100.00;98972.84;5023664;28;20185;-68
2024/03/27 03:20:43;;;;;;;15.83;8.20;;;;;;;6.87;100.00;98846.25;5021833;28;20923;-68
2024/03/27 03:23:09;;;;;;;11.33;7.70;;;;;;;7.42;100.00;98936.03;5024681;28;20312;-68
2024/03/27 03:25:35;;;;;;;10.60;7.90;;;;;;;7.04;100.00;98880.31;5024490;28;20439;-68
2024/03/27 03:28:00;;;;;;;11.23;7.90;;;;;;;7.07;100.00;98874.53;5027937;28;20196;-68
2024/03/27 03:30:25;;;;;;;10.60;7.77;;;;;;;7.29;100.00;98885.50;5025693;28;20192;-68
2024/03/27 03:32:51;;;;;;;12.30;7.70;;;;;;;7.63;100.00;98942.72;5026976;28;20204;-68
2024/03/27 03:35:16;;;;;;;13.73;8.27;;;;;;;7.68;100.00;98941.00;5026296;28;20618;-68
2024/03/27 03:37:42;;;;;;;11.67;8.20;;;;;;;6.99;100.00;98828.47;5029035;28;20247;-68
2024/03/27 03:40:08;;;;;;;13.77;7.27;;;;;;;6.90;100.00;98795.16;5023702;28;21003;-68
2024/03/27 03:42:34;;;;;;;15.33;8.83;;;;;;;7.48;100.00;98892.44;5021125;28;20290;-68
2024/03/27 03:44:59;;;;;;;11.53;7.53;;;;;;;7.46;100.00;98874.00;5026050;28;20541;-68
2024/03/27 03:47:25;;;;;;;13.73;7.50;;;;;;;7.34;100.00;98861.66;5004992;28;20185;-68
2024/03/27 03:49:50;;;;;;;13.13;7.93;;;;;;;7.65;100.00;98921.97;5006474;28;20642;-68
2024/03/27 03:52:16;;;;;;;10.73;7.20;;;;;;;6.92;100.00;98835.75;5025307;28;20306;-68
2024/03/27 03:54:41;;;;;;;11.13;7.80;;;;;;;7.69;100.00;98944.50;5021834;28;20606;-68
2024/03/27 03:57:06;;;;;;;13.07;7.23;;;;;;;6.93;100.00;98832.03;5019498;28;20192;-68
2024/03/27 03:59:32;;;;;;;10.77;7.47;;;;;;;7.00;100.00;98851.44;5026113;28;20189;-68
2024/03/27 04:01:57;;;;;;;10.23;6.67;;;;;;;7.69;100.00;98950.66;5024773;28;20205;-68
2024/03/27 04:04:23;;;;;;;11.87;8.00;;;;;;;7.76;100.00;98939.88;5026134;28;20180;-68
2024/03/27 04:06:48;;;;;;;11.83;8.27;;;;;;;7.16;100.00;98854.50;5025209;28;20330;-68
2024/03/27 04:09:13;;;;;;;10.67;7.37;;;;;;;7.74;100.00;98930.47;5020349;28;20193;-68
2024/03/27 04:11:39;;;;;;;12.40;7.37;;;;;;;7.73;100.00;98935.00;5021530;28;20224;-68
2024/03/27 04:14:04;;;;;;;12.90;8.13;;;;;;;7.62;100.00;98922.44;5022726;28;20225;-68
2024/03/27 04:16:30;;;;;;;11.73;8.13;;;;;;;7.01;100.00;98831.72;5007117;28;20188;-68
2024/03/27 04:18:56;;;;;;;11.23;7.63;;;;;;;7.12;100.00;98853.34;5022380;28;21026;-68
2024/03/27 04:21:21;;;;;;;12.20;7.10;;;;;;;7.69;100.00;98925.81;4999467;28;20658;-68
2024/03/27 04:23:47;;;;;;;11.77;7.00;;;;;;;7.39;100.00;98886.63;5023470;28;20534;-68
2024/03/27 04:26:12;;;;;;;15.07;7.60;;;;;;;7.28;100.00;98859.91;5024575;28;20238;-68
2024/03/27 04:28:38;;;;;;;12.47;7.80;;;;;;;7.47;100.00;98883.63;5023563;28;20609;-68
2024/03/27 04:31:04;;;;;;;11.80;7.87;;;;;;;7.31;100.00;98876.25;5022917;28;20204;-68
2024/03/27 04:33:30;;;;;;;11.53;8.00;;;;;;;7.33;100.00;98849.38;5025290;28;20563;-68
2024/03/27 04:35:55;;;;;;;11.33;7.33;;;;;;;7.32;100.00;98831.72;5023404;28;20866;-68
2024/03/27 04:38:21;;;;;;;12.30;7.80;;;;;;;7.82;100.00;98890.13;5000998;28;20314;-68
2024/03/27 04:40:46;;;;;;;10.90;7.33;;;;;;;6.89;100.00;98731.44;5017335;28;20192;-68
2024/03/27 04:43:11;;;;;;;14.20;7.97;;;;;;;7.71;100.00;98843.69;5021700;28;20582;-68
2024/03/27 04:45:38;;;;;;;12.07;7.87;;;;;;;7.57;100.00;98818.25;5017766;28;20249;-68
2024/03/27 04:48:04;;;;;;;12.40;7.90;;;;;;;7.52;100.00;98770.09;5019325;28;20203;-68
2024/03/27 04:50:30;;;;;;;11.40;7.80;;;;;;;7.58;100.00;98745.16;5000165;28;20715;-68
2024/03/27 04:52:55;;;;;;;11.30;7.23;;;;;;;8.03;100.00;98798.00;5015452;28;20479;-68
2024/03/27 04:55:20;;;;;;;11.50;7.97;;;;;;;7.65;100.00;98733.34;5020949;28;20189;-68
2024/03/27 04:57:46;;;;;;;11.07;8.17;;;;;;;7.97;100.00;98764.22;5020711;28;20680;-68
2024/03/27 05:00:12;;;;;;;11.40;7.33;;;;;;;8.10;100.00;98766.63;5022114;28;20199;-68
2024/03/27 05:02:38;;;;;;;13.93;8.03;;;;;;;8.05;100.00;98758.53;5020135;28;20208;-68
2024/03/27 05:05:05;;;;;;;10.20;7.70;;;;;;;7.48;100.00;98689.72;5018640;28;20447;-68
2024/03/27 05:07:31;;;;;;;11.57;8.07;;;;;;;7.98;100.00;98781.84;5000756;28;20489;-68
2024/03/27 05:09:56;;;;;;;10.53;7.77;;;;;;;7.87;100.00;98783.50;5022115;28;20454;-68
2024/03/27 05:12:22;;;;;;;11.57;7.27;;;;;;;7.54;100.00;98752.81;5017012;28;20286;-68
2024/03/27 05:14:47;;;;;;;11.80;7.70;;;;;;;7.65;100.00;98778.69;5020396;28;20193;-68
2024/03/27 05:17:13;;;;;;;11.63;7.60;;;;;;;7.73;100.00;98806.09;5019598;28;20199;-68
2024/03/27 05:19:39;;;;;;;13.40;8.10;;;;;;;7.84;100.00;98810.63;5019217;28;20216;-68
2024/03/27 05:22:05;;;;;;;11.23;7.70;;;;;;;7.69;100.00;98789.72;5021737;28;20258;-68
2024/03/27 05:24:30;;;;;;;;;;;;;;;7.90;100.00;98825.75;5023635;28;20450;-68
2024/03/27 05:26:55;;;;;;;;;;;;;;;7.96;100.00;98834.69;5022773;28;19913;-68
2024/03/27 05:29:21;;;;;;;12.95;7.55;;;;;;;7.61;100.00;98785.53;5027270;28;20421;-68
2024/03/27 05:31:50;;;;;;;11.33;7.40;;;;;;;8.01;100.00;98872.16;5023433;28;20216;-68
2024/03/27 05:34:16;;;;;;;11.47;8.17;;;;;;;7.80;100.00;98823.63;5022634;28;20650;-68
2024/03/27 05:36:42;;;;;;;13.40;7.90;;;;;;;8.02;100.00;98887.97;5024115;28;20879;-68
2024/03/27 05:39:10;;;;;;;12.30;8.10;;;;;;;8.05;100.00;98868.00;5024466;28;20473;-68
2024/03/27 05:41:37;;;;;;;12.60;8.23;;;;;;;8.08;100.00;98887.03;5023216;28;20220;-68
2024/03/27 05:44:03;;;;;;;10.77;7.57;;;;;;;7.90;100.00;98863.91;5027362;28;20450;-68
2024/03/27 05:46:28;;;;;;;12.53;8.10;;;;;;;7.29;100.00;98742.34;5022606;28;20815;-68
2024/03/27 05:48:55;;;;;;;12.70;8.40;;;;;;;7.76;100.00;98827.00;5027653;28;20478;-68
2024/03/27 05:51:23;;;;;;;10.53;7.40;;;;;;;7.84;100.00;98818.63;5024994;28;20216;-68
2024/03/27 05:53:49;;;;;;;10.60;7.10;;;;;;;8.00;100.00;98838.50;5024100;28;20950;-68
2024/03/27 05:56:14;;;;;;;11.50;7.47;;;;;;;7.06;100.00;98689.78;5023500;28;20443;-68
2024/03/27 05:58:40;;;;;;;12.20;8.07;;;;;;;7.18;100.00;98711.13;5025751;28;20247;-68
2024/03/27 06:01:05;;;;;;;16.93;8.50;;;;;;;7.04;100.00;98699.03;5023599;28;20612;-67
2024/03/27 06:03:31;;;;;;;12.47;7.30;;;;;;;7.81;100.00;98795.91;5022278;28;20192;-67
2024/03/27 06:05:56;;;;;;;12.63;8.30;;;;;;;7.18;100.00;98695.94;5003670;28;20195;-68
2024/03/27 06:08:22;;;;;;;13.73;8.33;;;;;;;6.99;100.00;98671.19;5001479;28;20439;-68
2024/03/27 06:10:48;;;;;;;12.70;8.80;;;;;;;8.07;100.00;98820.50;5003982;28;20577;-68
2024/03/27 06:13:13;;;;;;;13.10;8.30;;;;;;;7.18;100.00;98679.13;5001266;28;20307;-67
2024/03/27 06:15:39;;;;;;;13.30;8.80;;;;;;;7.26;100.00;98700.09;5017585;28;20199;-67
2024/03/27 06:18:05;;;;;;;12.60;8.57;;;;;;;8.25;100.00;98816.94;5022908;28;20949;-68
2024/03/27 06:20:32;;;;;;;11.87;8.33;;;;;;;8.27;100.00;98822.84;4998980;28;20196;-68
2024/03/27 06:22:58;;;;;;;11.50;8.37;;;;;;;8.26;100.00;98806.00;5025097;28;20212;-67
2024/03/27 06:25:23;;;;;;;12.13;8.23;;;;;;;7.58;100.00;98683.78;5026880;28;20964;-67
2024/03/27 06:27:49;;;;;;;11.93;8.20;;;;;;;7.49;100.00;98640.63;5025136;28;24739;-67
2024/03/27 06:30:14;;;;;;;12.33;8.70;;;;;;;8.36;100.00;98770.66;5019352;28;20722;-67
2024/03/27 06:32:41;;;;;;;12.13;8.00;;;;;;;8.19;100.00;98724.38;5025141;28;20219;-67
2024/03/27 06:35:07;;;;;;;12.00;8.27;;;;;;;8.31;100.00;98727.84;5022100;28;20232;-67
2024/03/27 06:37:32;;;;;;;13.30;8.70;;;;;;;8.34;100.00;98717.50;5004666;28;20537;-67
2024/03/27 06:39:59;;;;;;;11.70;8.00;;;;;;;8.45;100.00;98739.13;5023266;28;20452;-67
2024/03/27 06:42:24;;;;;;;11.43;8.23;;;;;;;8.22;100.00;98679.34;5024929;28;20203;-68
2024/03/27 06:44:50;;;;;;;13.73;8.10;;;;;;;7.57;100.00;98552.25;5027156;28;20435;-67
2024/03/27 06:47:18;;;;;;;11.90;7.73;;;;;;;8.58;100.00;98659.47;4999336;28;20188;-68
2024/03/27 06:49:43;;;;;;;12.70;8.43;;;;;;;8.57;100.00;98620.47;5004094;28;20181;-67
2024/03/27 06:52:09;;;;;;;13.03;8.50;;;;;;;8.85;100.00;98652.72;5022091;28;20477;-67
2024/03/27 06:54:34;;;;;;;11.70;7.20;;;;;;;8.10;100.00;98542.34;5023379;28;20238;-67
2024/03/27 06:56:59;;;;;;;12.33;8.57;;;;;;;7.92;100.00;98503.31;5004764;28;20653;-68
2024/03/27 06:59:25;;;;;;;14.97;9.20;;;;;;;8.74;100.00;98623.16;5009526;28;20224;-68
2024/03/27 07:01:50;;;;;;;12.00;7.90;;;;;;;8.96;100.00;98635.81;5020407;28;20211;-68
2024/03/27 07:04:16;;;;;;;11.50;7.77;;;;;;;9.15;100.00;98637.22;5005049;28;20199;-68
2024/03/27 07:06:42;;;;;;;13.13;8.57;;;;;;;8.27;100.00;98508.47;5027239;28;20185;-67
2024/03/27 07:09:08;;;;;;;12.90;8.47;;;;;;;8.24;100.00;98495.59;5006848;28;20219;-68
2024/03/27 07:11:34;;;;;;;13.00;8.27;;;;;;;8.64;100.00;98576.75;5023609;28;20540;-68
2024/03/27 07:14:00;;;;;;;11.87;8.30;;;;;;;8.61;100.00;98537.94;5022692;28;20195;-67
2024/03/27 07:16:26;;;;;;;12.10;8.20;;;;;;;9.40;100.00;98641.31;5023155;28;20196;-68
2024/03/27 07:18:53;;;;;;;12.33;8.30;;;;;;;9.43;100.00;98611.41;5027751;28;20529;-69
2024/03/27 07:21:18;;;;;;;13.80;7.73;;;;;;;8.93;100.00;98484.72;5001854;28;20486;-68
2024/03/27 07:23:45;;;;;;;12.23;7.77;;;;;;;8.65;100.00;98407.31;5023936;28;20937;-68
2024/03/27 07:26:11;;;;;;;12.30;7.70;;;;;;;9.57;100.00;98536.94;5024883;28;20196;-68
2024/03/27 07:28:36;;;;;;;10.80;8.10;;;;;;;9.34;100.00;98514.69;5020273;28;20998;-68
2024/03/27 07:31:02;;;;;;;14.10;9.30;;;;;;;9.23;100.00;98494.25;5023808;28;20204;-68
2024/03/27 07:33:27;;;;;;;14.67;8.80;;;;;;;9.62;100.00;98510.25;5020139;28;21014;-67
2024/03/27 07:35:54;;;;;;;11.73;8.10;;;;;;;8.98;100.00;98377.03;5017595;28;20209;-67
2024/03/27 07:38:20;;;;;;;11.23;7.87;;;;;;;9.50;100.00;98425.53;5015162;28;20869;-67
2024/03/27 07:40:49;;;;;;;10.87;7.70;;;;;;;9.60;100.00;98467.66;5017719;28;20531;-68
2024/03/27 07:43:14;;;;;;;12.23;8.40;;;;;;;9.04;100.00;98368.03;5003376;28;20466;-68
2024/03/27 07:45:40;;;;;;;12.20;7.70;;;;;;;9.77;100.00;98502.38;5022147;28;20518;-68
2024/03/27 07:48:06;;;;;;;13.30;8.43;;;;;;;9.34;100.00;98412.22;5020391;28;20446;-68
2024/03/27 07:50:32;;;;;;;13.63;7.87;;;;;;;10.06;100.00;98449.38;5022227;28;20302;-68
2024/03/27 07:52:57;;;;;;;12.47;7.10;;;;;;;10.09;100.00;98383.78;5021971;28;21047;-68
2024/03/27 07:55:22;;;;;;;12.10;6.90;;;;;;;10.10;100.00;98347.94;5018947;28;20253;-68
2024/03/27 07:57:48;;;;;;;14.53;7.10;;;;;;;9.69;100.00;98265.41;5023360;28;20184;-67
2024/03/27 08:00:16;;;;;;;9.80;6.60;;;;;;;9.54;100.00;98243.06;5016826;28;20192;-68
2024/03/27 08:02:42;;;;;;;11.43;7.50;;;;;;;9.83;100.00;98249.72;5019438;28;20582;-68
2024/03/27 08:05:08;;;;;;;10.10;6.60;;;;;;;10.19;100.00;98269.50;5002858;28;20451;-68
2024/03/27 08:07:34;;;;;;;13.63;7.57;;;;;;;10.15;100.00;98238.13;5002567;28;20458;-68
2024/03/27 08:09:59;;;;;;;9.90;6.00;;;;;;;10.46;100.00;98260.56;5027465;28;20438;-68
2024/03/27 08:12:25;;;;;;;12.00;6.27;;;;;;;9.81;100.00;98101.13;5020393;28;20635;-68
2024/03/27 08:14:50;;;;;;;10.30;6.27;;;;;;;9.26;100.00;97980.19;5021315;28;20836;-68
2024/03/27 08:17:16;;;;;;;11.60;7.33;;;;;;;10.48;100.00;98145.88;5018047;28;20208;-67
2024/03/27 08:19:42;;;;;;;10.30;6.50;;;;;;;10.24;100.00;98113.38;5020693;28;20195;-67
2024/03/27 08:22:08;;;;;;;11.57;7.10;;;;;;;10.54;100.00;98192.25;4999067;28;20430;-68
2024/03/27 08:24:34;;;;;;;16.13;6.57;;;;;;;9.96;100.00;98079.78;5021445;28;20478;-68
2024/03/27 08:27:03;;;;;;;9.53;6.73;;;;;;;9.96;100.00;98106.56;5019741;28;20558;-67
2024/03/27 08:29:29;;;;;;;10.33;6.70;;;;;;;9.74;100.00;98114.72;5020742;28;20199;-67
2024/03/27 08:31:59;;;;;;;12.83;6.30;;;;;;;9.90;100.00;98156.59;5014931;28;20510;-68
2024/03/27 08:34:25;;;;;;;13.33;6.67;;;;;;;10.68;100.00;98241.63;5020106;28;20799;-68
2024/03/27 08:36:50;;;;;;;10.23;7.00;;;;;;;8.90;100.00;97963.13;4988402;22;1395013;-72
2024/03/27 08:39:16;;;;;;;10.77;6.63;;;;;;;10.74;100.00;98234.41;5023657;28;20184;-72
2024/03/27 08:41:42;;;;;;;12.83;6.30;;;;;;;10.46;100.00;98217.69;5003548;28;20195;-72
2024/03/27 08:44:08;;;;;;;13.13;7.73;;;;;;;10.73;100.00;98263.13;5025900;28;20275;-72
2024/03/27 08:46:34;;;;;;;11.30;6.70;;;;;;;10.76;100.00;98267.94;5025910;28;20525;-73
2024/03/27 08:48:59;;;;;;;11.83;6.87;;;;;;;10.50;100.00;98223.31;5026015;28;20196;-72
2024/03/27 08:51:25;;;;;;;13.60;6.80;;;;;;;10.58;100.00;98237.03;5023304;28;20545;-72
2024/03/27 08:53:52;;;;;;;13.37;7.30;;;;;;;10.47;100.00;98239.94;5008177;28;20548;-72
2024/03/27 08:56:17;;;;;;;11.23;7.53;;;;;;;10.33;100.00;98227.03;5026740;28;20207;-72
2024/03/27 08:58:43;;;;;;;10.87;7.10;;;;;;;10.45;100.00;98258.16;5026472;28;20529;-73
2024/03/27 09:01:19;;;;;;;15.07;7.83;;;;;;;10.60;100.00;98293.06;5001336;28;20219;-72
2024/03/27 09:03:46;;;;;;;11.03;7.20;;;;;;;10.43;100.00;98223.56;5027726;28;20184;-72
2024/03/27 09:06:13;;;;;;;12.53;6.67;;;;;;;10.90;100.00;98307.66;5026392;28;20445;-72
2024/03/27 09:08:39;;;;;;;15.17;7.50;;;;;;;10.85;100.00;98303.91;5020495;28;20438;-73
2024/03/27 09:11:06;;;;;;;12.13;7.70;;;;;;;10.27;100.00;98227.25;5026367;28;20454;-72
2024/03/27 09:13:31;;;;;;;11.00;6.97;;;;;;;10.90;100.00;98329.13;5015591;28;20718;-72
2024/03/27 09:15:58;;;;;;;9.63;6.87;;;;;;;10.43;100.00;98255.72;5025855;28;20439;-72
2024/03/27 09:18:24;;;;;;;10.87;6.83;;;;;;;10.97;100.00;98318.97;5026178;28;20207;-73
2024/03/27 09:20:54;;;;;;;11.43;7.00;;;;;;;10.74;100.00;98199.56;5022765;28;20801;-73
2024/03/27 09:23:19;;;;;;;9.17;6.00;;;;;;;11.31;100.00;98263.78;5019872;28;20451;-73
2024/03/27 09:25:54;;;;;;;12.93;6.00;;;;;;;11.51;100.00;98241.53;5029266;28;20446;-73
2024/03/27 09:28:21;;;;;;;12.27;6.20;;;;;;;11.63;100.00;98211.72;5008605;28;20183;-72
2024/03/27 09:30:46;;;;;;;14.33;5.60;;;;;;;11.61;100.00;98168.22;5025350;28;20520;-72
2024/03/27 09:33:12;;;;;;;16.67;4.90;;;;;;;11.77;100.00;98129.53;5021064;28;20559;-72
2024/03/27 09:35:38;;;;;;;10.50;4.23;;;;;;;11.28;100.00;98046.16;5025054;28;21074;-72
2024/03/27 09:38:03;;;;;;;10.83;3.67;;;;;;;11.46;100.00;98064.38;5024816;28;20188;-73
2024/03/27 09:40:29;;;;;;;9.87;4.30;;;;;;;11.27;100.00;98031.13;5024734;28;20189;-72
2024/03/27 09:42:55;;;;;;;10.73;4.90;;;;;;;10.89;100.00;97989.63;5023413;28;20201;-72
2024/03/27 09:45:23;;;;;;;10.63;5.20;;;;;;;11.69;100.00;98123.94;5023178;28;20250;-72
2024/03/27 09:47:48;;;;;;;10.50;5.10;;;;;;;11.16;100.00;98038.38;5002619;28;20789;-72
2024/03/27 09:50:14;;;;;;;9.23;4.30;;;;;;;11.76;100.00;98127.13;5023923;28;20439;-72
2024/03/27 09:52:40;;;;;;;9.90;4.77;;;;;;;11.16;100.00;98046.44;5023291;28;20303;-72
2024/03/27 09:55:08;;;;;;;8.97;4.00;;;;;;;11.36;100.00;98109.22;5027451;28;20208;-72
2024/03/27 09:57:33;;;;;;;10.20;3.73;;;;;;;11.34;100.00;98120.22;5028748;28;20776;-72
2024/03/27 09:59:59;;;;;;;8.80;4.43;;;;;;;11.20;100.00;98133.38;5029569;28;20439;-72
2024/03/27 10:02:26;;;;;;;11.00;4.90;;;;;;;11.49;100.00;98181.94;5011284;28;20200;-72
2024/03/27 10:04:53;;;;;;;8.63;4.07;;;;;;;10.76;100.00;98074.06;5032911;28;20441;-72
2024/03/27 10:07:22;;;;;;;8.70;4.07;;;;;;;11.46;100.00;98168.25;5030620;28;20455;-72
2024/03/27 10:09:48;;;;;;;7.40;3.67;;;;;;;10.74;100.00;98060.94;5035403;28;20435;-72
2024/03/27 10:12:13;;;;;;;7.83;3.80;;;;;;;11.08;100.00;98057.75;5016554;28;20478;-72
2024/03/27 10:14:39;;;;;;;10.30;4.83;;;;;;;11.96;100.00;98178.13;5015267;28;20181;-72
2024/03/27 10:17:05;;;;;;;7.30;3.83;;;;;;;12.15;100.00;98113.03;5031705;28;20188;-72
2024/03/27 10:19:31;;;;;;;7.83;4.17;;;;;;;12.24;100.00;98127.53;5029593;28;20188;-72
2024/03/27 10:21:56;;;;;;;8.00;4.43;;;;;;;11.89;100.00;98063.97;5027296;28;20485;-73
2024/03/27 10:24:22;;;;;;;10.03;4.40;;;;;;;12.28;100.00;98092.84;5025149;28;20199;-72
2024/03/27 10:26:48;;;;;;;9.43;3.90;;;;;;;12.58;100.00;98135.69;5029252;28;20188;-72
2024/03/27 10:29:14;;;;;;;8.40;3.83;;;;;;;12.03;100.00;98059.63;5029225;28;20231;-72
2024/03/27 10:31:39;;;;;;;8.70;3.67;;;;;;;11.63;100.00;98031.03;5028139;28;20467;-72
2024/03/27 10:34:08;;;;;;;9.80;3.80;;;;;;;12.04;100.00;98109.59;5027052;28;20200;-72
2024/03/27 10:36:35;;;;;;;7.50;3.80;;;;;;;12.42;100.00;98159.16;5006598;28;20184;-72
2024/03/27 10:39:07;;;;;;;9.60;4.40;;;;;;;12.21;100.00;98174.56;5005518;28;20450;-72
2024/03/27 10:41:34;;;;;;;6.93;3.83;;;;;;;12.09;100.00;98166.03;5025070;28;20455;-72
2024/03/27 10:44:02;;;;;;;7.10;3.47;;;;;;;12.10;100.00;98181.06;5008931;28;20900;-72
2024/03/27 10:46:32;;;;;;;8.20;4.10;;;;;;;11.33;100.00;98067.63;5027266;28;20446;-72
2024/03/27 10:49:00;;;;;;;9.20;4.17;;;;;;;12.20;100.00;98196.31;5029541;28;20431;-73
2024/03/27 10:51:26;;;;;;;8.33;3.83;;;;;;;11.83;100.00;98151.00;5020946;28;20506;-73
2024/03/27 10:53:54;;;;;;;11.57;4.13;;;;;;;11.40;100.00;98112.94;5004155;28;20449;-73
2024/03/27 10:56:20;;;;;;;7.70;3.87;;;;;;;11.74;100.00;98151.56;5026489;28;20504;-72
2024/03/27 10:58:47;;;;;;;7.47;3.73;;;;;;;12.02;100.00;98205.78;5005718;28;20442;-73
2024/03/27 11:01:13;;;;;;;8.60;4.17;;;;;;;11.77;100.00;98159.09;5003439;28;20200;-72
2024/03/27 11:03:41;;;;;;;14.67;4.00;;;;;;;12.42;100.00;98226.38;5028321;28;20501;-72
2024/03/27 11:06:08;;;;;;;8.07;4.10;;;;;;;11.99;100.00;98144.53;5026961;28;20244;-72
2024/03/27 11:08:35;;;;;;;7.50;3.50;;;;;;;11.83;100.00;98145.63;5004343;28;20538;-72
2024/03/27 11:11:05;;;;;;;7.73;3.80;;;;;;;12.17;100.00;98250.63;5026338;28;20442;-72
2024/03/27 11:13:30;;;;;;;7.70;3.60;;;;;;;11.71;100.00;98183.50;5024245;28;20446;-72
2024/03/27 11:15:56;;;;;;;7.97;3.83;;;;;;;12.08;100.00;98279.13;5009230;28;20927;-72
2024/03/27 11:18:27;;;;;;;11.77;3.83;;;;;;;11.60;100.00;98206.06;5026011;28;20188;-72
2024/03/27 11:20:55;;;;;;;7.03;3.43;;;;;;;12.19;100.00;98311.09;5026424;28;20210;-72